sensor_id;sensor_type;location;lat;lon;timestamp;P1;durP1;ratioP1;P2;durP2;ratioP2
60169;SDS011;46042;49.444;6.862;2022-07-10T00:01:48;4.55;;;1.98;;
60169;SDS011;46042;49.444;6.862;2022-07-10T00:04:15;3.80;;;1.70;;
60169;SDS011;46042;49.444;6.862;2022-07-10T00:06:42;7.30;;;2.60;;
60169;SDS011;46042;49.444;6.862;2022-07-10T00:09:13;2.42;;;1.70;;
60169;SDS011;46042;49.444;6.862;2022-07-10T00:11:41;7.38;;;2.30;;
60169;SDS011;46042;49.444;6.862;2022-07-10T00:14:08;5.15;;;2.00;;
60169;SDS011;46042;49.444;6.862;2022-07-10T00:16:35;10.85;;;2.20;;
60169;SDS011;46042;49.444;6.862;2022-07-10T00:19:02;8.57;;;2.30;;
60169;SDS011;46042;49.444;6.862;2022-07-10T00:21:29;5.13;;;2.65;;
60169;SDS011;46042;49.444;6.862;2022-07-10T00:23:55;8.90;;;2.30;;
60169;SDS011;46042;49.444;6.862;2022-07-10T00:26:22;10.75;;;2.35;;
60169;SDS011;46042;49.444;6.862;2022-07-10T00:28:49;3.80;;;1.83;;
60169;SDS011;46042;49.444;6.862;2022-07-10T00:31:15;3.85;;;1.60;;
60169;SDS011;46042;49.444;6.862;2022-07-10T00:33:42;7.20;;;2.13;;
60169;SDS011;46042;49.444;6.862;2022-07-10T00:36:09;7.35;;;2.20;;
60169;SDS011;46042;49.444;6.862;2022-07-10T00:38:36;5.38;;;2.42;;
60169;SDS011;46042;49.444;6.862;2022-07-10T00:41:03;7.05;;;2.50;;
60169;SDS011;46042;49.444;6.862;2022-07-10T00:43:30;10.52;;;2.20;;
60169;SDS011;46042;49.444;6.862;2022-07-10T00:46:17;6.78;;;2.50;;
60169;SDS011;46042;49.444;6.862;2022-07-10T00:48:47;2.80;;;2.35;;
60169;SDS011;46042;49.444;6.862;2022-07-10T00:51:15;4.53;;;2.40;;
60169;SDS011;46042;49.444;6.862;2022-07-10T00:53:46;11.32;;;2.97;;
60169;SDS011;46042;49.444;6.862;2022-07-10T00:56:21;9.00;;;2.70;;
60169;SDS011;46042;49.444;6.862;2022-07-10T00:58:49;7.15;;;2.35;;
60169;SDS011;46042;49.444;6.862;2022-07-10T01:01:16;5.00;;;2.55;;
60169;SDS011;46042;49.444;6.862;2022-07-10T01:03:44;5.88;;;2.53;;
60169;SDS011;46042;49.444;6.862;2022-07-10T01:06:15;5.05;;;2.42;;
60169;SDS011;46042;49.444;6.862;2022-07-10T01:08:43;9.55;;;3.17;;
60169;SDS011;46042;49.444;6.862;2022-07-10T01:11:11;4.32;;;2.53;;
60169;SDS011;46042;49.444;6.862;2022-07-10T01:13:41;5.40;;;3.00;;
60169;SDS011;46042;49.444;6.862;2022-07-10T01:16:09;10.00;;;3.08;;
60169;SDS011;46042;49.444;6.862;2022-07-10T01:18:36;5.38;;;2.67;;
60169;SDS011;46042;49.444;6.862;2022-07-10T01:21:03;7.32;;;3.25;;
60169;SDS011;46042;49.444;6.862;2022-07-10T01:23:30;6.03;;;2.53;;
60169;SDS011;46042;49.444;6.862;2022-07-10T01:25:57;5.55;;;2.65;;
60169;SDS011;46042;49.444;6.862;2022-07-10T01:28:24;9.10;;;3.17;;
60169;SDS011;46042;49.444;6.862;2022-07-10T01:30:54;6.78;;;3.10;;
60169;SDS011;46042;49.444;6.862;2022-07-10T01:33:21;7.72;;;3.50;;
60169;SDS011;46042;49.444;6.862;2022-07-10T01:35:48;8.77;;;3.30;;
60169;SDS011;46042;49.444;6.862;2022-07-10T01:38:14;8.00;;;2.97;;
60169;SDS011;46042;49.444;6.862;2022-07-10T01:40:41;8.73;;;3.60;;
60169;SDS011;46042;49.444;6.862;2022-07-10T01:43:08;10.25;;;3.30;;
60169;SDS011;46042;49.444;6.862;2022-07-10T01:45:34;6.30;;;3.08;;
60169;SDS011;46042;49.444;6.862;2022-07-10T01:48:01;5.15;;;3.38;;
60169;SDS011;46042;49.444;6.862;2022-07-10T01:50:28;9.55;;;3.67;;
60169;SDS011;46042;49.444;6.862;2022-07-10T01:52:54;6.47;;;3.30;;
60169;SDS011;46042;49.444;6.862;2022-07-10T01:55:21;9.45;;;3.17;;
60169;SDS011;46042;49.444;6.862;2022-07-10T01:57:48;9.02;;;3.75;;
60169;SDS011;46042;49.444;6.862;2022-07-10T02:00:14;9.40;;;3.00;;
60169;SDS011;46042;49.444;6.862;2022-07-10T02:02:41;7.18;;;3.40;;
60169;SDS011;46042;49.444;6.862;2022-07-10T02:05:28;10.30;;;3.35;;
60169;SDS011;46042;49.444;6.862;2022-07-10T02:07:55;7.78;;;3.60;;
60169;SDS011;46042;49.444;6.862;2022-07-10T02:10:21;10.65;;;3.85;;
60169;SDS011;46042;49.444;6.862;2022-07-10T02:12:48;12.20;;;3.60;;
60169;SDS011;46042;49.444;6.862;2022-07-10T02:15:15;6.53;;;3.20;;
60169;SDS011;46042;49.444;6.862;2022-07-10T02:17:41;17.25;;;3.67;;
60169;SDS011;46042;49.444;6.862;2022-07-10T02:20:09;7.25;;;3.40;;
60169;SDS011;46042;49.444;6.862;2022-07-10T02:22:37;5.78;;;3.22;;
60169;SDS011;46042;49.444;6.862;2022-07-10T02:25:03;6.78;;;3.20;;
60169;SDS011;46042;49.444;6.862;2022-07-10T02:27:31;6.45;;;2.83;;
60169;SDS011;46042;49.444;6.862;2022-07-10T02:29:58;14.52;;;3.50;;
60169;SDS011;46042;49.444;6.862;2022-07-10T02:32:24;7.13;;;3.65;;
60169;SDS011;46042;49.444;6.862;2022-07-10T02:34:51;7.50;;;3.42;;
60169;SDS011;46042;49.444;6.862;2022-07-10T02:37:18;6.53;;;3.25;;
60169;SDS011;46042;49.444;6.862;2022-07-10T02:39:44;8.45;;;3.45;;
60169;SDS011;46042;49.444;6.862;2022-07-10T02:42:11;7.55;;;3.15;;
60169;SDS011;46042;49.444;6.862;2022-07-10T02:44:38;12.60;;;3.88;;
60169;SDS011;46042;49.444;6.862;2022-07-10T02:47:04;9.70;;;3.40;;
60169;SDS011;46042;49.444;6.862;2022-07-10T02:49:31;6.72;;;3.40;;
60169;SDS011;46042;49.444;6.862;2022-07-10T02:51:59;5.15;;;3.10;;
60169;SDS011;46042;49.444;6.862;2022-07-10T02:54:26;4.38;;;2.92;;
60169;SDS011;46042;49.444;6.862;2022-07-10T02:56:52;8.18;;;3.53;;
60169;SDS011;46042;49.444;6.862;2022-07-10T02:59:19;7.38;;;3.22;;
60169;SDS011;46042;49.444;6.862;2022-07-10T03:01:46;12.68;;;3.65;;
60169;SDS011;46042;49.444;6.862;2022-07-10T03:04:13;12.13;;;3.35;;
60169;SDS011;46042;49.444;6.862;2022-07-10T03:06:39;5.35;;;3.03;;
60169;SDS011;46042;49.444;6.862;2022-07-10T03:09:06;8.20;;;3.05;;
60169;SDS011;46042;49.444;6.862;2022-07-10T03:11:33;9.73;;;3.53;;
60169;SDS011;46042;49.444;6.862;2022-07-10T03:13:59;9.80;;;3.70;;
60169;SDS011;46042;49.444;6.862;2022-07-10T03:16:26;11.05;;;3.67;;
60169;SDS011;46042;49.444;6.862;2022-07-10T03:18:53;4.60;;;3.28;;
60169;SDS011;46042;49.444;6.862;2022-07-10T03:21:19;8.00;;;3.30;;
60169;SDS011;46042;49.444;6.862;2022-07-10T03:23:46;6.43;;;3.67;;
60169;SDS011;46042;49.444;6.862;2022-07-10T03:26:13;5.68;;;3.25;;
60169;SDS011;46042;49.444;6.862;2022-07-10T03:28:39;10.25;;;4.05;;
60169;SDS011;46042;49.444;6.862;2022-07-10T03:31:07;8.05;;;3.85;;
60169;SDS011;46042;49.444;6.862;2022-07-10T03:33:33;7.10;;;3.33;;
60169;SDS011;46042;49.444;6.862;2022-07-10T03:36:00;12.13;;;4.05;;
60169;SDS011;46042;49.444;6.862;2022-07-10T03:38:30;10.88;;;4.00;;
60169;SDS011;46042;49.444;6.862;2022-07-10T03:40:57;8.38;;;3.55;;
60169;SDS011;46042;49.444;6.862;2022-07-10T03:43:24;8.63;;;4.10;;
60169;SDS011;46042;49.444;6.862;2022-07-10T03:45:50;13.60;;;4.45;;
60169;SDS011;46042;49.444;6.862;2022-07-10T03:48:17;10.20;;;4.50;;
60169;SDS011;46042;49.444;6.862;2022-07-10T03:50:44;13.98;;;4.35;;
60169;SDS011;46042;49.444;6.862;2022-07-10T03:53:10;12.25;;;3.88;;
60169;SDS011;46042;49.444;6.862;2022-07-10T03:55:37;6.13;;;4.22;;
60169;SDS011;46042;49.444;6.862;2022-07-10T03:58:04;10.73;;;4.53;;
60169;SDS011;46042;49.444;6.862;2022-07-10T04:00:31;12.18;;;4.45;;
60169;SDS011;46042;49.444;6.862;2022-07-10T04:03:04;7.32;;;3.65;;
60169;SDS011;46042;49.444;6.862;2022-07-10T04:05:32;10.23;;;3.92;;
60169;SDS011;46042;49.444;6.862;2022-07-10T04:08:00;7.03;;;4.05;;
60169;SDS011;46042;49.444;6.862;2022-07-10T04:10:28;6.75;;;4.05;;
60169;SDS011;46042;49.444;6.862;2022-07-10T04:12:57;7.43;;;4.10;;
60169;SDS011;46042;49.444;6.862;2022-07-10T04:15:24;7.32;;;4.15;;
60169;SDS011;46042;49.444;6.862;2022-07-10T04:17:51;14.15;;;4.80;;
60169;SDS011;46042;49.444;6.862;2022-07-10T04:20:19;11.50;;;4.68;;
60169;SDS011;46042;49.444;6.862;2022-07-10T04:22:46;11.63;;;4.30;;
60169;SDS011;46042;49.444;6.862;2022-07-10T04:25:12;10.32;;;4.22;;
60169;SDS011;46042;49.444;6.862;2022-07-10T04:27:39;9.07;;;4.40;;
60169;SDS011;46042;49.444;6.862;2022-07-10T04:30:07;8.70;;;4.13;;
60169;SDS011;46042;49.444;6.862;2022-07-10T04:32:34;9.73;;;4.50;;
60169;SDS011;46042;49.444;6.862;2022-07-10T04:35:00;16.63;;;4.32;;
60169;SDS011;46042;49.444;6.862;2022-07-10T04:37:27;8.02;;;3.75;;
60169;SDS011;46042;49.444;6.862;2022-07-10T04:39:57;8.55;;;4.20;;
60169;SDS011;46042;49.444;6.862;2022-07-10T04:42:24;6.20;;;4.30;;
60169;SDS011;46042;49.444;6.862;2022-07-10T04:44:52;8.25;;;4.63;;
60169;SDS011;46042;49.444;6.862;2022-07-10T04:47:19;8.32;;;4.32;;
60169;SDS011;46042;49.444;6.862;2022-07-10T04:49:45;10.60;;;4.25;;
60169;SDS011;46042;49.444;6.862;2022-07-10T04:52:12;12.23;;;4.30;;
60169;SDS011;46042;49.444;6.862;2022-07-10T04:54:39;8.93;;;3.47;;
60169;SDS011;46042;49.444;6.862;2022-07-10T04:57:05;8.45;;;4.25;;
60169;SDS011;46042;49.444;6.862;2022-07-10T04:59:32;8.77;;;3.88;;
60169;SDS011;46042;49.444;6.862;2022-07-10T05:01:59;9.27;;;4.65;;
60169;SDS011;46042;49.444;6.862;2022-07-10T05:04:25;10.48;;;3.80;;
60169;SDS011;46042;49.444;6.862;2022-07-10T05:06:52;12.15;;;4.25;;
60169;SDS011;46042;49.444;6.862;2022-07-10T05:09:19;13.90;;;4.35;;
60169;SDS011;46042;49.444;6.862;2022-07-10T05:11:46;12.68;;;4.07;;
60169;SDS011;46042;49.444;6.862;2022-07-10T05:14:13;10.52;;;3.53;;
60169;SDS011;46042;49.444;6.862;2022-07-10T05:16:40;7.03;;;3.20;;
60169;SDS011;46042;49.444;6.862;2022-07-10T05:19:06;9.70;;;3.80;;
60169;SDS011;46042;49.444;6.862;2022-07-10T05:21:33;10.30;;;3.35;;
60169;SDS011;46042;49.444;6.862;2022-07-10T05:24:00;8.52;;;3.40;;
60169;SDS011;46042;49.444;6.862;2022-07-10T05:26:27;15.90;;;4.10;;
60169;SDS011;46042;49.444;6.862;2022-07-10T05:28:54;8.88;;;3.33;;
60169;SDS011;46042;49.444;6.862;2022-07-10T05:31:21;5.75;;;2.40;;
60169;SDS011;46042;49.444;6.862;2022-07-10T05:33:47;5.57;;;2.55;;
60169;SDS011;46042;49.444;6.862;2022-07-10T05:36:14;8.75;;;2.75;;
60169;SDS011;46042;49.444;6.862;2022-07-10T05:38:41;7.03;;;2.80;;
60169;SDS011;46042;49.444;6.862;2022-07-10T05:41:08;7.45;;;3.35;;
60169;SDS011;46042;49.444;6.862;2022-07-10T05:43:34;7.15;;;2.50;;
60169;SDS011;46042;49.444;6.862;2022-07-10T05:46:01;11.68;;;4.30;;
60169;SDS011;46042;49.444;6.862;2022-07-10T05:48:28;4.75;;;2.00;;
60169;SDS011;46042;49.444;6.862;2022-07-10T05:50:55;5.13;;;2.03;;
60169;SDS011;46042;49.444;6.862;2022-07-10T05:53:41;7.28;;;2.40;;
60169;SDS011;46042;49.444;6.862;2022-07-10T05:56:07;13.27;;;2.97;;
60169;SDS011;46042;49.444;6.862;2022-07-10T05:58:34;3.50;;;2.20;;
60169;SDS011;46042;49.444;6.862;2022-07-10T06:01:01;5.28;;;2.58;;
60169;SDS011;46042;49.444;6.862;2022-07-10T06:03:28;10.18;;;3.05;;
60169;SDS011;46042;49.444;6.862;2022-07-10T06:05:55;6.65;;;2.33;;
60169;SDS011;46042;49.444;6.862;2022-07-10T06:08:21;7.35;;;2.38;;
60169;SDS011;46042;49.444;6.862;2022-07-10T06:10:48;3.75;;;1.60;;
60169;SDS011;46042;49.444;6.862;2022-07-10T06:13:15;6.18;;;1.70;;
60169;SDS011;46042;49.444;6.862;2022-07-10T06:15:41;7.65;;;1.92;;
60169;SDS011;46042;49.444;6.862;2022-07-10T06:18:09;6.85;;;1.92;;
60169;SDS011;46042;49.444;6.862;2022-07-10T06:20:36;2.75;;;1.60;;
60169;SDS011;46042;49.444;6.862;2022-07-10T06:23:02;5.00;;;1.80;;
60169;SDS011;46042;49.444;6.862;2022-07-10T06:25:29;7.75;;;1.98;;
60169;SDS011;46042;49.444;6.862;2022-07-10T06:27:56;5.10;;;1.77;;
60169;SDS011;46042;49.444;6.862;2022-07-10T06:30:22;7.53;;;1.65;;
60169;SDS011;46042;49.444;6.862;2022-07-10T06:32:49;6.45;;;1.80;;
60169;SDS011;46042;49.444;6.862;2022-07-10T06:35:15;4.35;;;1.92;;
60169;SDS011;46042;49.444;6.862;2022-07-10T06:37:42;3.50;;;1.70;;
60169;SDS011;46042;49.444;6.862;2022-07-10T06:40:11;3.50;;;1.95;;
